sensor_id;sensor_type;location;lat;lon;timestamp;pressure;altitude;pressure_sealevel;temperature;humidity
10127;BME280;13080;42.608;23.362;2024-03-22T00:00:37;152055.38;;;3.77;54.77
10127;BME280;13080;42.608;23.362;2024-03-22T00:03:03;152060.53;;;3.79;54.03
10127;BME280;13080;42.608;23.362;2024-03-22T00:05:30;152046.34;;;3.73;54.68
10127;BME280;13080;42.608;23.362;2024-03-22T00:07:56;152042.47;;;3.71;54.67
10127;BME280;13080;42.608;23.362;2024-03-22T00:10:23;152036.00;;;3.69;54.41
10127;BME280;13080;42.608;23.362;2024-03-22T00:12:49;152025.66;;;3.65;55.24
10127;BME280;13080;42.608;23.362;2024-03-22T00:15:16;152024.38;;;3.64;55.23
10127;BME280;13080;42.608;23.362;2024-03-22T00:17:44;152010.16;;;3.59;55.55
10127;BME280;13080;42.608;23.362;2024-03-22T00:20:11;151997.25;;;3.53;55.67
10127;BME280;13080;42.608;23.362;2024-03-22T00:22:37;151988.25;;;3.50;55.99
10127;BME280;13080;42.608;23.362;2024-03-22T00:25:05;152002.44;;;3.56;55.75
10127;BME280;13080;42.608;23.362;2024-03-22T00:27:31;151989.53;;;3.50;55.58
10127;BME280;13080;42.608;23.362;2024-03-22T00:29:58;151989.53;;;3.50;55.27
10127;BME280;13080;42.608;23.362;2024-03-22T00:32:24;151989.53;;;3.50;55.53
10127;BME280;13080;42.608;23.362;2024-03-22T00:34:52;151985.63;;;3.49;56.00
10127;BME280;13080;42.608;23.362;2024-03-22T00:37:18;151971.44;;;3.43;56.73
10127;BME280;13080;42.608;23.362;2024-03-22T00:39:45;151961.09;;;3.39;56.79
10127;BME280;13080;42.608;23.362;2024-03-22T00:42:11;151966.28;;;3.41;57.15
10127;BME280;13080;42.608;23.362;2024-03-22T00:44:38;151958.50;;;3.38;58.41
10127;BME280;13080;42.608;23.362;2024-03-22T00:47:04;151936.53;;;3.29;58.58
10127;BME280;13080;42.608;23.362;2024-03-22T00:49:31;151926.25;;;3.25;58.79
10127;BME280;13080;42.608;23.362;2024-03-22T00:51:58;151931.41;;;3.27;57.93
10127;BME280;13080;42.608;23.362;2024-03-22T00:54:25;151923.66;;;3.24;59.35
10127;BME280;13080;42.608;23.362;2024-03-22T00:56:51;151919.75;;;3.23;57.48
10127;BME280;13080;42.608;23.362;2024-03-22T00:59:18;151901.69;;;3.16;58.29
10127;BME280;13080;42.608;23.362;2024-03-22T01:01:44;151888.78;;;3.10;58.25
10127;BME280;13080;42.608;23.362;2024-03-22T01:04:10;151865.56;;;3.01;58.76
10127;BME280;13080;42.608;23.362;2024-03-22T01:06:36;151859.09;;;2.99;59.00
10127;BME280;13080;42.608;23.362;2024-03-22T01:09:06;151833.28;;;2.88;60.17
10127;BME280;13080;42.608;23.362;2024-03-22T01:11:33;151824.25;;;2.85;60.83
10127;BME280;13080;42.608;23.362;2024-03-22T01:13:59;151820.38;;;2.83;60.16
10127;BME280;13080;42.608;23.362;2024-03-22T01:16:25;151806.16;;;2.78;60.73
10127;BME280;13080;42.608;23.362;2024-03-22T01:18:52;151800.97;;;2.76;61.12
10127;BME280;13080;42.608;23.362;2024-03-22T01:21:18;151807.47;;;2.78;60.95
10127;BME280;13080;42.608;23.362;2024-03-22T01:23:50;151815.22;;;2.81;60.49
10127;BME280;13080;42.608;23.362;2024-03-22T01:26:17;151812.59;;;2.80;61.22
10127;BME280;13080;42.608;23.362;2024-03-22T01:28:44;151826.81;;;2.86;60.75
10127;BME280;13080;42.608;23.362;2024-03-22T01:31:10;151826.81;;;2.86;60.83
10127;BME280;13080;42.608;23.362;2024-03-22T01:33:37;151850.06;;;2.95;60.77
10127;BME280;13080;42.608;23.362;2024-03-22T01:36:03;151890.06;;;3.11;61.12
10127;BME280;13080;42.608;23.362;2024-03-22T01:38:30;151896.53;;;3.13;60.78
10127;BME280;13080;42.608;23.362;2024-03-22T01:40:56;151922.38;;;3.24;60.12
10127;BME280;13080;42.608;23.362;2024-03-22T01:43:25;151906.84;;;3.18;60.78
10127;BME280;13080;42.608;23.362;2024-03-22T01:45:51;151893.97;;;3.12;60.66
10127;BME280;13080;42.608;23.362;2024-03-22T01:48:18;151913.31;;;3.20;60.19
10127;BME280;13080;42.608;23.362;2024-03-22T01:50:43;151915.91;;;3.21;59.27
10127;BME280;13080;42.608;23.362;2024-03-22T01:53:11;151948.16;;;3.34;59.19
10127;BME280;13080;42.608;23.362;2024-03-22T01:55:37;151986.91;;;3.49;58.78
10127;BME280;13080;42.608;23.362;2024-03-22T01:58:04;151972.72;;;3.44;58.80
10127;BME280;13080;42.608;23.362;2024-03-22T02:00:32;151986.91;;;3.49;59.59
10127;BME280;13080;42.608;23.362;2024-03-22T02:02:59;151994.69;;;3.52;59.38
10127;BME280;13080;42.608;23.362;2024-03-22T02:05:25;152001.16;;;3.55;59.74
10127;BME280;13080;42.608;23.362;2024-03-22T02:07:52;151994.69;;;3.52;59.57
10127;BME280;13080;42.608;23.362;2024-03-22T02:10:18;151986.91;;;3.49;59.40
10127;BME280;13080;42.608;23.362;2024-03-22T02:12:45;151990.81;;;3.51;59.23
10127;BME280;13080;42.608;23.362;2024-03-22T02:15:11;151989.53;;;3.50;60.29
10127;BME280;13080;42.608;23.362;2024-03-22T02:17:40;151977.91;;;3.46;59.97
10127;BME280;13080;42.608;23.362;2024-03-22T02:20:07;151976.63;;;3.45;60.42
10127;BME280;13080;42.608;23.362;2024-03-22T02:22:34;151971.44;;;3.43;60.10
10127;BME280;13080;42.608;23.362;2024-03-22T02:25:01;151962.41;;;3.40;59.77
10127;BME280;13080;42.608;23.362;2024-03-22T02:27:28;151955.94;;;3.37;60.02
10127;BME280;13080;42.608;23.362;2024-03-22T02:29:53;151955.94;;;3.37;60.25
10127;BME280;13080;42.608;23.362;2024-03-22T02:32:20;151974.00;;;3.44;60.44
10127;BME280;13080;42.608;23.362;2024-03-22T02:34:46;151955.94;;;3.37;60.50
10127;BME280;13080;42.608;23.362;2024-03-22T02:37:13;151958.50;;;3.38;60.70
10127;BME280;13080;42.608;23.362;2024-03-22T02:39:39;151948.16;;;3.34;60.99
10127;BME280;13080;42.608;23.362;2024-03-22T02:42:07;151945.59;;;3.33;60.65
10127;BME280;13080;42.608;23.362;2024-03-22T02:44:33;151950.78;;;3.35;60.12
10127;BME280;13080;42.608;23.362;2024-03-22T02:47:04;151950.78;;;3.35;60.04
10127;BME280;13080;42.608;23.362;2024-03-22T02:49:30;151963.69;;;3.40;60.13
10127;BME280;13080;42.608;23.362;2024-03-22T02:51:56;151948.16;;;3.34;60.38
10127;BME280;13080;42.608;23.362;2024-03-22T02:54:22;151937.88;;;3.30;60.92
10127;BME280;13080;42.608;23.362;2024-03-22T02:56:49;151950.78;;;3.35;61.07
10127;BME280;13080;42.608;23.362;2024-03-22T02:59:16;151946.88;;;3.33;61.02
10127;BME280;13080;42.608;23.362;2024-03-22T03:01:43;151963.69;;;3.40;60.54
10127;BME280;13080;42.608;23.362;2024-03-22T03:04:09;151962.41;;;3.40;60.92
10127;BME280;13080;42.608;23.362;2024-03-22T03:06:36;151937.88;;;3.30;60.68
10127;BME280;13080;42.608;23.362;2024-03-22T03:09:02;151918.47;;;3.22;61.26
10127;BME280;13080;42.608;23.362;2024-03-22T03:11:30;151917.19;;;3.22;61.66
10127;BME280;13080;42.608;23.362;2024-03-22T03:13:56;151910.75;;;3.19;61.66
10127;BME280;13080;42.608;23.362;2024-03-22T03:16:24;151890.06;;;3.11;61.44
10127;BME280;13080;42.608;23.362;2024-03-22T03:18:51;151879.72;;;3.07;61.92
10127;BME280;13080;42.608;23.362;2024-03-22T03:21:17;151870.72;;;3.03;62.34
10127;BME280;13080;42.608;23.362;2024-03-22T03:23:44;151864.28;;;3.01;63.01
10127;BME280;13080;42.608;23.362;2024-03-22T03:26:10;151853.94;;;2.97;62.08
10127;BME280;13080;42.608;23.362;2024-03-22T03:28:37;151837.16;;;2.90;62.88
10127;BME280;13080;42.608;23.362;2024-03-22T03:31:03;151830.72;;;2.87;63.39
10127;BME280;13080;42.608;23.362;2024-03-22T03:33:31;151811.31;;;2.80;63.75
10127;BME280;13080;42.608;23.362;2024-03-22T03:35:57;151810.03;;;2.79;63.55
10127;BME280;13080;42.608;23.362;2024-03-22T03:38:24;151793.25;;;2.73;63.63
10127;BME280;13080;42.608;23.362;2024-03-22T03:40:50;151786.81;;;2.70;64.26
10127;BME280;13080;42.608;23.362;2024-03-22T03:43:16;151775.19;;;2.65;65.20
10127;BME280;13080;42.608;23.362;2024-03-22T03:45:42;151767.47;;;2.62;65.44
10127;BME280;13080;42.608;23.362;2024-03-22T03:48:09;151741.63;;;2.52;64.97
10127;BME280;13080;42.608;23.362;2024-03-22T03:50:36;151739.03;;;2.51;64.48
10127;BME280;13080;42.608;23.362;2024-03-22T03:53:03;151735.19;;;2.49;66.64
10127;BME280;13080;42.608;23.362;2024-03-22T03:55:29;151718.41;;;2.43;66.86
10127;BME280;13080;42.608;23.362;2024-03-22T03:57:56;151696.47;;;2.34;67.59
10127;BME280;13080;42.608;23.362;2024-03-22T04:00:22;151673.25;;;2.25;68.19
10127;BME280;13080;42.608;23.362;2024-03-22T04:02:49;151652.59;;;2.17;69.52
10127;BME280;13080;42.608;23.362;2024-03-22T04:05:15;151632.00;;;2.08;69.73
10127;BME280;13080;42.608;23.362;2024-03-22T04:07:47;151599.72;;;1.96;69.78
10127;BME280;13080;42.608;23.362;2024-03-22T04:10:12;151576.50;;;1.86;69.60
10127;BME280;13080;42.608;23.362;2024-03-22T04:12:39;151573.91;;;1.85;70.31
10127;BME280;13080;42.608;23.362;2024-03-22T04:15:06;151535.22;;;1.70;70.41
10127;BME280;13080;42.608;23.362;2024-03-22T04:17:33;151535.22;;;1.70;70.11
10127;BME280;13080;42.608;23.362;2024-03-22T04:19:59;151535.22;;;1.70;69.50
10127;BME280;13080;42.608;23.362;2024-03-22T04:22:26;151521.03;;;1.64;70.03
10127;BME280;13080;42.608;23.362;2024-03-22T04:24:53;151508.16;;;1.59;71.68
10127;BME280;13080;42.608;23.362;2024-03-22T04:27:20;151517.16;;;1.63;71.36
10127;BME280;13080;42.608;23.362;2024-03-22T04:29:47;151553.31;;;1.77;70.48
10127;BME280;13080;42.608;23.362;2024-03-22T04:32:14;151541.69;;;1.73;69.88
10127;BME280;13080;42.608;23.362;2024-03-22T04:34:41;151523.59;;;1.65;70.80
10127;BME280;13080;42.608;23.362;2024-03-22T04:37:08;151530.03;;;1.68;71.52
10127;BME280;13080;42.608;23.362;2024-03-22T04:39:37;151527.50;;;1.67;71.04
10127;BME280;13080;42.608;23.362;2024-03-22T04:42:06;151573.91;;;1.85;70.29
10127;BME280;13080;42.608;23.362;2024-03-22T04:44:33;151572.63;;;1.85;69.33
10127;BME280;13080;42.608;23.362;2024-03-22T04:46:59;151570.06;;;1.84;70.22
10127;BME280;13080;42.608;23.362;2024-03-22T04:49:25;151589.41;;;1.92;69.20
10127;BME280;13080;42.608;23.362;2024-03-22T04:51:52;151594.56;;;1.94;69.55
10127;BME280;13080;42.608;23.362;2024-03-22T04:54:18;151602.28;;;1.97;69.97
10127;BME280;13080;42.608;23.362;2024-03-22T04:56:45;151620.34;;;2.04;69.36
10127;BME280;13080;42.608;23.362;2024-03-22T04:59:12;151634.53;;;2.10;69.53
10127;BME280;13080;42.608;23.362;2024-03-22T05:01:39;151656.47;;;2.18;68.73
10127;BME280;13080;42.608;23.362;2024-03-22T05:04:05;151677.13;;;2.26;68.28
10127;BME280;13080;42.608;23.362;2024-03-22T05:06:32;151708.09;;;2.39;67.87
10127;BME280;13080;42.608;23.362;2024-03-22T05:08:58;151724.84;;;2.45;67.97
10127;BME280;13080;42.608;23.362;2024-03-22T05:11:24;151737.75;;;2.50;68.08
10127;BME280;13080;42.608;23.362;2024-03-22T05:13:50;151753.25;;;2.57;68.46
10127;BME280;13080;42.608;23.362;2024-03-22T05:16:19;151768.75;;;2.63;68.59
10127;BME280;13080;42.608;23.362;2024-03-22T05:18:44;151789.38;;;2.71;69.04
10127;BME280;13080;42.608;23.362;2024-03-22T05:21:11;151811.31;;;2.80;68.56
10127;BME280;13080;42.608;23.362;2024-03-22T05:23:37;151841.03;;;2.91;68.04
10127;BME280;13080;42.608;23.362;2024-03-22T05:26:04;151868.13;;;3.02;68.09
10127;BME280;13080;42.608;23.362;2024-03-22T05:28:30;151890.06;;;3.11;67.97
10127;BME280;13080;42.608;23.362;2024-03-22T05:30:57;152005.03;;;3.57;62.92
10127;BME280;13080;42.608;23.362;2024-03-22T05:33:24;152081.22;;;3.87;59.58
10127;BME280;13080;42.608;23.362;2024-03-22T05:35:51;152104.47;;;3.96;60.14
10127;BME280;13080;42.608;23.362;2024-03-22T05:38:17;152125.16;;;4.04;60.66
10127;BME280;13080;42.608;23.362;2024-03-22T05:40:44;152152.31;;;4.15;60.54
10127;BME280;13080;42.608;23.362;2024-03-22T05:43:13;152160.03;;;4.18;64.33
10127;BME280;13080;42.608;23.362;2024-03-22T05:45:40;152174.25;;;4.24;63.81
10127;BME280;13080;42.608;23.362;2024-03-22T05:48:06;152204.00;;;4.35;64.14
10127;BME280;13080;42.608;23.362;2024-03-22T05:50:34;152223.38;;;4.43;64.12
10127;BME280;13080;42.608;23.362;2024-03-22T05:53:00;152253.09;;;4.55;62.87
10127;BME280;13080;42.608;23.362;2024-03-22T05:55:27;152267.31;;;4.61;61.49
10127;BME280;13080;42.608;23.362;2024-03-22T05:57:56;152297.06;;;4.72;61.11
10127;BME280;13080;42.608;23.362;2024-03-22T06:00:23;152304.84;;;4.75;60.89
10127;BME280;13080;42.608;23.362;2024-03-22T06:02:49;152319.03;;;4.81;61.03
10127;BME280;13080;42.608;23.362;2024-03-22T06:05:16;152375.91;;;5.04;59.51
10127;BME280;13080;42.608;23.362;2024-03-22T06:07:44;152417.28;;;5.20;58.97
10127;BME280;13080;42.608;23.362;2024-03-22T06:10:11;152412.16;;;5.18;57.98
10127;BME280;13080;42.608;23.362;2024-03-22T06:12:37;152412.16;;;5.18;58.72
10127;BME280;13080;42.608;23.362;2024-03-22T06:15:05;152412.16;;;5.18;60.32
10127;BME280;13080;42.608;23.362;2024-03-22T06:17:31;152436.72;;;5.28;58.67
10127;BME280;13080;42.608;23.362;2024-03-22T06:19:59;152461.28;;;5.37;59.02
10127;BME280;13080;42.608;23.362;2024-03-22T06:22:25;152498.81;;;5.52;57.20
10127;BME280;13080;42.608;23.362;2024-03-22T06:24:53;152562.19;;;5.77;56.44
10127;BME280;13080;42.608;23.362;2024-03-22T06:27:19;152546.66;;;5.71;56.41
10127;BME280;13080;42.608;23.362;2024-03-22T06:29:46;152558.31;;;5.76;56.04
10127;BME280;13080;42.608;23.362;2024-03-22T06:32:12;152554.47;;;5.74;56.64
10127;BME280;13080;42.608;23.362;2024-03-22T06:34:39;152553.13;;;5.74;55.64
10127;BME280;13080;42.608;23.362;2024-03-22T06:37:04;152558.31;;;5.76;55.29
10127;BME280;13080;42.608;23.362;2024-03-22T06:39:31;152550.56;;;5.73;55.21
10127;BME280;13080;42.608;23.362;2024-03-22T06:41:58;152579.03;;;5.84;55.39
10127;BME280;13080;42.608;23.362;2024-03-22T06:44:25;152597.13;;;5.91;53.92
10127;BME280;13080;42.608;23.362;2024-03-22T06:46:51;152660.59;;;6.16;52.98
10127;BME280;13080;42.608;23.362;2024-03-22T06:49:18;152651.56;;;6.13;54.61
10127;BME280;13080;42.608;23.362;2024-03-22T06:51:43;152639.91;;;6.08;56.53
10127;BME280;13080;42.608;23.362;2024-03-22T06:54:10;152682.59;;;6.25;54.52
10127;BME280;13080;42.608;23.362;2024-03-22T06:56:36;152691.69;;;6.29;55.53
10127;BME280;13080;42.608;23.362;2024-03-22T06:59:04;152664.47;;;6.18;55.67
10127;BME280;13080;42.608;23.362;2024-03-22T07:01:30;152730.53;;;6.44;55.24
10127;BME280;13080;42.608;23.362;2024-03-22T07:03:57;152704.59;;;6.34;54.92
10127;BME280;13080;42.608;23.362;2024-03-22T07:06:22;152752.53;;;6.53;55.08
10127;BME280;13080;42.608;23.362;2024-03-22T07:08:49;152748.63;;;6.51;55.14
10127;BME280;13080;42.608;23.362;2024-03-22T07:11:15;152764.19;;;6.57;55.35
10127;BME280;13080;42.608;23.362;2024-03-22T07:13:42;152755.09;;;6.54;53.89
10127;BME280;13080;42.608;23.362;2024-03-22T07:16:09;152777.13;;;6.62;55.30
10127;BME280;13080;42.608;23.362;2024-03-22T07:18:36;152826.34;;;6.82;53.23
10127;BME280;13080;42.608;23.362;2024-03-22T07:21:02;152817.25;;;6.78;54.34
10127;BME280;13080;42.608;23.362;2024-03-22T07:23:29;152840.56;;;6.87;54.29
10127;BME280;13080;42.608;23.362;2024-03-22T07:25:55;152869.06;;;6.99;54.19
10127;BME280;13080;42.608;23.362;2024-03-22T07:28:22;152917.00;;;7.18;53.11
10127;BME280;13080;42.608;23.362;2024-03-22T07:30:48;152923.47;;;7.20;53.33
10127;BME280;13080;42.608;23.362;2024-03-22T07:33:16;152919.56;;;7.19;53.07
10127;BME280;13080;42.608;23.362;2024-03-22T07:35:43;152918.28;;;7.18;53.45
10127;BME280;13080;42.608;23.362;2024-03-22T07:38:10;152971.38;;;7.39;52.44
10127;BME280;13080;42.608;23.362;2024-03-22T07:40:36;152941.59;;;7.27;52.81
10127;BME280;13080;42.608;23.362;2024-03-22T07:43:03;152913.09;;;7.16;54.16
10127;BME280;13080;42.608;23.362;2024-03-22T07:45:31;152941.59;;;7.27;55.47
10127;BME280;13080;42.608;23.362;2024-03-22T07:47:58;152961.00;;;7.35;53.49
10127;BME280;13080;42.608;23.362;2024-03-22T07:50:25;152974.00;;;7.40;54.18
10127;BME280;13080;42.608;23.362;2024-03-22T07:52:52;152954.53;;;7.33;53.72
10127;BME280;13080;42.608;23.362;2024-03-22T07:55:18;153021.94;;;7.59;55.15
10127;BME280;13080;42.608;23.362;2024-03-22T07:57:45;153028.41;;;7.62;52.14
10127;BME280;13080;42.608;23.362;2024-03-22T08:00:11;153042.69;;;7.67;52.69
10127;BME280;13080;42.608;23.362;2024-03-22T08:02:38;153063.38;;;7.76;51.59
10127;BME280;13080;42.608;23.362;2024-03-22T08:05:04;153063.38;;;7.76;51.28
10127;BME280;13080;42.608;23.362;2024-03-22T08:07:33;153080.22;;;7.82;52.49
10127;BME280;13080;42.608;23.362;2024-03-22T08:09:59;153073.75;;;7.80;51.58
10127;BME280;13080;42.608;23.362;2024-03-22T08:12:27;153089.31;;;7.86;50.75
10127;BME280;13080;42.608;23.362;2024-03-22T08:14:53;153077.66;;;7.81;51.15
10127;BME280;13080;42.608;23.362;2024-03-22T08:17:20;153098.41;;;7.89;50.79
10127;BME280;13080;42.608;23.362;2024-03-22T08:19:46;153124.31;;;8.00;51.10
10127;BME280;13080;42.608;23.362;2024-03-22T08:22:13;153107.47;;;7.93;50.57
10127;BME280;13080;42.608;23.362;2024-03-22T08:24:40;153139.88;;;8.06;52.14
10127;BME280;13080;42.608;23.362;2024-03-22T08:27:07;153182.63;;;8.23;51.20
10127;BME280;13080;42.608;23.362;2024-03-22T08:29:33;153207.28;;;8.32;50.28
10127;BME280;13080;42.608;23.362;2024-03-22T08:32:01;153221.53;;;8.38;49.46
10127;BME280;13080;42.608;23.362;2024-03-22T08:34:29;153220.25;;;8.38;50.20
10127;BME280;13080;42.608;23.362;2024-03-22T08:36:57;153285.16;;;8.63;49.71
10127;BME280;13080;42.608;23.362;2024-03-22T08:39:23;153298.13;;;8.68;48.03
10127;BME280;13080;42.608;23.362;2024-03-22T08:41:52;153287.72;;;8.64;48.72
10127;BME280;13080;42.608;23.362;2024-03-22T08:44:18;153299.41;;;8.69;49.00
10127;BME280;13080;42.608;23.362;2024-03-22T08:46:45;153272.16;;;8.58;49.84
10127;BME280;13080;42.608;23.362;2024-03-22T08:49:11;153321.44;;;8.78;47.81
10127;BME280;13080;42.608;23.362;2024-03-22T08:51:38;153305.88;;;8.71;46.89
10127;BME280;13080;42.608;23.362;2024-03-22T08:54:04;153309.78;;;8.73;46.92
10127;BME280;13080;42.608;23.362;2024-03-22T08:56:31;153298.13;;;8.68;45.60
10127;BME280;13080;42.608;23.362;2024-03-22T08:58:59;153327.94;;;8.80;46.27
10127;BME280;13080;42.608;23.362;2024-03-22T09:01:26;153313.69;;;8.74;46.54
10127;BME280;13080;42.608;23.362;2024-03-22T09:03:52;153295.50;;;8.67;46.26
10127;BME280;13080;42.608;23.362;2024-03-22T09:06:19;153272.16;;;8.58;48.27
10127;BME280;13080;42.608;23.362;2024-03-22T09:08:45;153278.63;;;8.61;46.85
10127;BME280;13080;42.608;23.362;2024-03-22T09:11:12;153325.34;;;8.79;46.05
10127;BME280;13080;42.608;23.362;2024-03-22T09:13:38;153370.75;;;8.97;46.11
10127;BME280;13080;42.608;23.362;2024-03-22T09:16:06;153361.66;;;8.93;46.31
10127;BME280;13080;42.608;23.362;2024-03-22T09:18:32;153365.56;;;8.95;48.02
10127;BME280;13080;42.608;23.362;2024-03-22T09:20:59;153391.47;;;9.05;46.42
10127;BME280;13080;42.608;23.362;2024-03-22T09:23:25;153407.06;;;9.11;47.91
10127;BME280;13080;42.608;23.362;2024-03-22T09:25:52;153396.66;;;9.07;46.04
10127;BME280;13080;42.608;23.362;2024-03-22T09:28:18;153399.28;;;9.08;46.16
10127;BME280;13080;42.608;23.362;2024-03-22T09:30:45;153417.44;;;9.15;46.22
10127;BME280;13080;42.608;23.362;2024-03-22T09:33:12;153410.97;;;9.13;45.17
10127;BME280;13080;42.608;23.362;2024-03-22T09:35:39;153390.19;;;9.05;46.64
10127;BME280;13080;42.608;23.362;2024-03-22T09:38:05;153418.72;;;9.16;47.03
10127;BME280;13080;42.608;23.362;2024-03-22T09:40:32;153462.84;;;9.33;45.74
10127;BME280;13080;42.608;23.362;2024-03-22T09:43:01;153442.09;;;9.25;45.65
10127;BME280;13080;42.608;23.362;2024-03-22T09:45:29;153477.09;;;9.39;45.21
10127;BME280;13080;42.608;23.362;2024-03-22T09:47:57;153474.53;;;9.38;44.32
10127;BME280;13080;42.608;23.362;2024-03-22T09:50:26;153475.81;;;9.39;44.70
10127;BME280;13080;42.608;23.362;2024-03-22T09:52:52;153481.00;;;9.41;46.81
10127;BME280;13080;42.608;23.362;2024-03-22T09:55:22;153496.59;;;9.47;43.48
10127;BME280;13080;42.608;23.362;2024-03-22T09:57:49;153455.03;;;9.30;45.47
10127;BME280;13080;42.608;23.362;2024-03-22T10:00:18;153446.00;;;9.27;45.53
10127;BME280;13080;42.608;23.362;2024-03-22T10:02:46;153500.47;;;9.48;45.69
10127;BME280;13080;42.608;23.362;2024-03-22T10:05:13;153521.25;;;9.56;44.42
10127;BME280;13080;42.608;23.362;2024-03-22T10:07:41;153526.44;;;9.58;43.96
10127;BME280;13080;42.608;23.362;2024-03-22T10:10:08;153526.44;;;9.58;45.48
10127;BME280;13080;42.608;23.362;2024-03-22T10:12:34;153523.88;;;9.57;44.27
10127;BME280;13080;42.608;23.362;2024-03-22T10:15:01;153564.09;;;9.73;44.64
10127;BME280;13080;42.608;23.362;2024-03-22T10:17:27;153582.25;;;9.81;44.30
10127;BME280;13080;42.608;23.362;2024-03-22T10:19:55;153567.94;;;9.75;45.70
10127;BME280;13080;42.608;23.362;2024-03-22T10:22:21;153544.59;;;9.66;45.41
10127;BME280;13080;42.608;23.362;2024-03-22T10:24:51;153601.69;;;9.88;43.56
10127;BME280;13080;42.608;23.362;2024-03-22T10:27:19;153603.03;;;9.89;44.39
10127;BME280;13080;42.608;23.362;2024-03-22T10:29:46;153608.19;;;9.91;42.98
10127;BME280;13080;42.608;23.362;2024-03-22T10:32:13;153564.09;;;9.73;44.51
10127;BME280;13080;42.608;23.362;2024-03-22T10:34:40;153553.69;;;9.69;44.61
10127;BME280;13080;42.608;23.362;2024-03-22T10:37:08;153583.53;;;9.81;44.25
10127;BME280;13080;42.608;23.362;2024-03-22T10:39:38;153586.16;;;9.82;43.27
10127;BME280;13080;42.608;23.362;2024-03-22T10:42:06;153596.50;;;9.86;44.29
10127;BME280;13080;42.608;23.362;2024-03-22T10:44:33;153587.44;;;9.83;45.80
10127;BME280;13080;42.608;23.362;2024-03-22T10:47:01;153587.44;;;9.83;43.64
10127;BME280;13080;42.608;23.362;2024-03-22T10:49:37;153600.41;;;9.88;44.15
10127;BME280;13080;42.608;23.362;2024-03-22T10:52:05;153597.84;;;9.87;43.07
10127;BME280;13080;42.608;23.362;2024-03-22T10:54:36;153553.69;;;9.69;43.94
10127;BME280;13080;42.608;23.362;2024-03-22T10:57:05;153606.91;;;9.90;45.19
10127;BME280;13080;42.608;23.362;2024-03-22T10:59:34;153640.66;;;10.04;43.27
10127;BME280;13080;42.608;23.362;2024-03-22T11:02:03;153662.72;;;10.12;43.09
10127;BME280;13080;42.608;23.362;2024-03-22T11:04:32;153690.00;;;10.23;42.16
10127;BME280;13080;42.608;23.362;2024-03-22T11:06:58;153731.59;;;10.39;42.95
10127;BME280;13080;42.608;23.362;2024-03-22T11:09:26;153813.44;;;10.72;41.63
10127;BME280;13080;42.608;23.362;2024-03-22T11:11:53;153830.34;;;10.78;43.15
10127;BME280;13080;42.608;23.362;2024-03-22T11:14:21;153873.19;;;10.95;41.20
10127;BME280;13080;42.608;23.362;2024-03-22T11:16:49;153830.34;;;10.78;42.10
10127;BME280;13080;42.608;23.362;2024-03-22T11:19:17;153809.53;;;10.70;42.64
10127;BME280;13080;42.608;23.362;2024-03-22T11:21:42;153866.69;;;10.93;41.43
10127;BME280;13080;42.608;23.362;2024-03-22T11:24:09;153853.72;;;10.88;39.62
10127;BME280;13080;42.608;23.362;2024-03-22T11:26:37;153818.59;;;10.74;39.59
10127;BME280;13080;42.608;23.362;2024-03-22T11:29:04;153879.66;;;10.98;41.91
10127;BME280;13080;42.608;23.362;2024-03-22T11:31:31;153958.94;;;11.29;39.97
10127;BME280;13080;42.608;23.362;2024-03-22T11:33:59;153990.13;;;11.41;39.93
10127;BME280;13080;42.608;23.362;2024-03-22T11:36:26;154005.69;;;11.48;40.61
10127;BME280;13080;42.608;23.362;2024-03-22T11:38:52;153986.22;;;11.40;40.13
10127;BME280;13080;42.608;23.362;2024-03-22T11:41:22;153984.94;;;11.39;39.93
10127;BME280;13080;42.608;23.362;2024-03-22T11:43:51;153929.06;;;11.17;40.10
10127;BME280;13080;42.608;23.362;2024-03-22T11:46:17;153919.94;;;11.14;40.36
10127;BME280;13080;42.608;23.362;2024-03-22T11:48:51;153887.50;;;11.01;40.14
10127;BME280;13080;42.608;23.362;2024-03-22T11:51:16;153888.78;;;11.01;40.31
10127;BME280;13080;42.608;23.362;2024-03-22T11:53:49;153853.72;;;10.88;39.68
10127;BME280;13080;42.608;23.362;2024-03-22T11:56:18;153866.69;;;10.93;41.12
10127;BME280;13080;42.608;23.362;2024-03-22T11:58:45;153823.78;;;10.76;40.71
10127;BME280;13080;42.608;23.362;2024-03-22T12:01:12;153806.91;;;10.69;40.18
10127;BME280;13080;42.608;23.362;2024-03-22T12:03:39;153819.94;;;10.74;40.50
10127;BME280;13080;42.608;23.362;2024-03-22T12:06:09;153865.41;;;10.92;39.78
10127;BME280;13080;42.608;23.362;2024-03-22T12:08:36;153819.94;;;10.74;40.28
10127;BME280;13080;42.608;23.362;2024-03-22T12:11:04;153831.63;;;10.79;40.28
10127;BME280;13080;42.608;23.362;2024-03-22T12:13:30;153779.66;;;10.58;39.95
10127;BME280;13080;42.608;23.362;2024-03-22T12:15:56;153770.56;;;10.55;39.57
10127;BME280;13080;42.608;23.362;2024-03-22T12:18:23;153783.53;;;10.60;39.82
10127;BME280;13080;42.608;23.362;2024-03-22T12:20:49;153873.19;;;10.95;39.02
10127;BME280;13080;42.608;23.362;2024-03-22T12:23:17;153842.03;;;10.83;40.07
10127;BME280;13080;42.608;23.362;2024-03-22T12:25:43;153931.63;;;11.18;39.69
10127;BME280;13080;42.608;23.362;2024-03-22T12:28:10;153971.91;;;11.34;40.31
10127;BME280;13080;42.608;23.362;2024-03-22T12:30:36;154042.13;;;11.62;39.33
10127;BME280;13080;42.608;23.362;2024-03-22T12:33:03;154022.59;;;11.54;39.70
10127;BME280;13080;42.608;23.362;2024-03-22T12:35:31;154061.59;;;11.70;40.71
10127;BME280;13080;42.608;23.362;2024-03-22T12:37:59;154088.91;;;11.80;38.47
10127;BME280;13080;42.608;23.362;2024-03-22T12:40:27;154069.44;;;11.73;38.87
10127;BME280;13080;42.608;23.362;2024-03-22T12:42:55;154052.53;;;11.66;38.42
10127;BME280;13080;42.608;23.362;2024-03-22T12:45:22;153987.50;;;11.40;39.56